sensor_id;sensor_type;location;lat;lon;timestamp;P1;durP1;ratioP1;P2;durP2;ratioP2
840;SDS011;406;48.566;13.450;2022-08-01T00:00:22;6.43;;;5.83;;
840;SDS011;406;48.566;13.450;2022-08-01T00:02:48;5.20;;;4.80;;
840;SDS011;406;48.566;13.450;2022-08-01T00:05:13;5.87;;;5.37;;
840;SDS011;406;48.566;13.450;2022-08-01T00:07:39;9.10;;;5.90;;
840;SDS011;406;48.566;13.450;2022-08-01T00:10:05;5.80;;;5.30;;
840;SDS011;406;48.566;13.450;2022-08-01T00:12:32;9.53;;;5.70;;
840;SDS011;406;48.566;13.450;2022-08-01T00:14:58;7.13;;;5.60;;
840;SDS011;406;48.566;13.450;2022-08-01T00:17:24;6.23;;;5.27;;
840;SDS011;406;48.566;13.450;2022-08-01T00:19:49;5.50;;;5.00;;
840;SDS011;406;48.566;13.450;2022-08-01T00:22:15;6.10;;;5.50;;
840;SDS011;406;48.566;13.450;2022-08-01T00:24:40;5.53;;;4.93;;
840;SDS011;406;48.566;13.450;2022-08-01T00:27:05;7.23;;;5.60;;
840;SDS011;406;48.566;13.450;2022-08-01T00:29:31;6.33;;;5.73;;
840;SDS011;406;48.566;13.450;2022-08-01T00:31:56;6.93;;;6.03;;
840;SDS011;406;48.566;13.450;2022-08-01T00:34:22;7.47;;;6.07;;
840;SDS011;406;48.566;13.450;2022-08-01T00:36:47;8.80;;;5.67;;
840;SDS011;406;48.566;13.450;2022-08-01T00:39:13;7.70;;;6.20;;
840;SDS011;406;48.566;13.450;2022-08-01T00:41:38;6.73;;;5.80;;
840;SDS011;406;48.566;13.450;2022-08-01T00:44:04;6.03;;;5.53;;
840;SDS011;406;48.566;13.450;2022-08-01T00:46:30;7.90;;;7.10;;
840;SDS011;406;48.566;13.450;2022-08-01T00:48:57;8.73;;;6.23;;
840;SDS011;406;48.566;13.450;2022-08-01T00:51:22;7.63;;;6.87;;
840;SDS011;406;48.566;13.450;2022-08-01T00:53:48;6.97;;;6.33;;
840;SDS011;406;48.566;13.450;2022-08-01T00:56:15;6.57;;;5.97;;
840;SDS011;406;48.566;13.450;2022-08-01T00:58:40;8.00;;;5.77;;
840;SDS011;406;48.566;13.450;2022-08-01T01:01:06;8.10;;;7.13;;
840;SDS011;406;48.566;13.450;2022-08-01T01:03:31;7.90;;;6.57;;
840;SDS011;406;48.566;13.450;2022-08-01T01:06:05;9.70;;;6.20;;
840;SDS011;406;48.566;13.450;2022-08-01T01:08:46;9.17;;;6.87;;
840;SDS011;406;48.566;13.450;2022-08-01T01:11:25;7.17;;;6.53;;
840;SDS011;406;48.566;13.450;2022-08-01T01:14:00;7.27;;;6.67;;
840;SDS011;406;48.566;13.450;2022-08-01T01:16:29;6.90;;;6.30;;
840;SDS011;406;48.566;13.450;2022-08-01T01:18:57;8.80;;;6.20;;
840;SDS011;406;48.566;13.450;2022-08-01T01:21:39;7.43;;;6.53;;
840;SDS011;406;48.566;13.450;2022-08-01T01:29:56;6.77;;;6.07;;
840;SDS011;406;48.566;13.450;2022-08-01T01:32:38;6.33;;;5.73;;
840;SDS011;406;48.566;13.450;2022-08-01T01:35:05;8.77;;;6.20;;
840;SDS011;406;48.566;13.450;2022-08-01T01:37:33;6.60;;;5.83;;
840;SDS011;406;48.566;13.450;2022-08-01T01:39:59;6.10;;;5.60;;
840;SDS011;406;48.566;13.450;2022-08-01T01:42:28;8.20;;;5.97;;
840;SDS011;406;48.566;13.450;2022-08-01T01:44:54;6.83;;;6.23;;
840;SDS011;406;48.566;13.450;2022-08-01T01:47:21;6.57;;;6.03;;
840;SDS011;406;48.566;13.450;2022-08-01T01:49:47;6.43;;;5.83;;
840;SDS011;406;48.566;13.450;2022-08-01T01:52:13;14.13;;;6.00;;
840;SDS011;406;48.566;13.450;2022-08-01T01:54:42;6.17;;;5.60;;
840;SDS011;406;48.566;13.450;2022-08-01T01:57:10;5.47;;;4.97;;
840;SDS011;406;48.566;13.450;2022-08-01T01:59:37;6.30;;;5.80;;
840;SDS011;406;48.566;13.450;2022-08-01T02:02:04;6.93;;;6.23;;
840;SDS011;406;48.566;13.450;2022-08-01T02:04:31;7.63;;;6.10;;
840;SDS011;406;48.566;13.450;2022-08-01T02:06:58;7.47;;;6.60;;
840;SDS011;406;48.566;13.450;2022-08-01T02:09:24;6.57;;;5.93;;
840;SDS011;406;48.566;13.450;2022-08-01T02:11:51;6.90;;;5.67;;
840;SDS011;406;48.566;13.450;2022-08-01T02:14:18;6.43;;;5.87;;
840;SDS011;406;48.566;13.450;2022-08-01T02:16:47;6.80;;;6.20;;
840;SDS011;406;48.566;13.450;2022-08-01T02:19:14;5.93;;;5.43;;
840;SDS011;406;48.566;13.450;2022-08-01T02:21:43;5.83;;;5.33;;
840;SDS011;406;48.566;13.450;2022-08-01T02:24:17;6.43;;;5.83;;
840;SDS011;406;48.566;13.450;2022-08-01T02:26:46;6.53;;;5.90;;
840;SDS011;406;48.566;13.450;2022-08-01T02:29:14;6.20;;;5.60;;
840;SDS011;406;48.566;13.450;2022-08-01T02:31:43;11.30;;;6.63;;
840;SDS011;406;48.566;13.450;2022-08-01T02:34:13;7.30;;;5.50;;
840;SDS011;406;48.566;13.450;2022-08-01T02:36:41;6.33;;;5.73;;
840;SDS011;406;48.566;13.450;2022-08-01T02:39:09;5.93;;;5.40;;
840;SDS011;406;48.566;13.450;2022-08-01T02:41:38;5.80;;;5.30;;
840;SDS011;406;48.566;13.450;2022-08-01T02:44:07;6.73;;;5.67;;
840;SDS011;406;48.566;13.450;2022-08-01T02:46:36;6.17;;;5.53;;
840;SDS011;406;48.566;13.450;2022-08-01T02:49:05;5.83;;;5.33;;
840;SDS011;406;48.566;13.450;2022-08-01T02:51:32;6.40;;;5.80;;
840;SDS011;406;48.566;13.450;2022-08-01T02:53:58;6.40;;;5.80;;
840;SDS011;406;48.566;13.450;2022-08-01T02:56:25;6.10;;;5.60;;
840;SDS011;406;48.566;13.450;2022-08-01T02:59:01;6.23;;;5.63;;
840;SDS011;406;48.566;13.450;2022-08-01T03:01:27;7.27;;;5.63;;
840;SDS011;406;48.566;13.450;2022-08-01T03:03:53;6.57;;;6.03;;
840;SDS011;406;48.566;13.450;2022-08-01T03:06:19;6.20;;;5.70;;
840;SDS011;406;48.566;13.450;2022-08-01T03:08:45;9.30;;;6.53;;
840;SDS011;406;48.566;13.450;2022-08-01T03:11:12;7.37;;;6.77;;
840;SDS011;406;48.566;13.450;2022-08-01T03:13:38;6.70;;;6.10;;
840;SDS011;406;48.566;13.450;2022-08-01T03:16:05;8.07;;;7.37;;
840;SDS011;406;48.566;13.450;2022-08-01T03:18:30;9.67;;;6.23;;
840;SDS011;406;48.566;13.450;2022-08-01T03:20:57;7.23;;;6.50;;
840;SDS011;406;48.566;13.450;2022-08-01T03:23:23;6.57;;;5.97;;
840;SDS011;406;48.566;13.450;2022-08-01T03:25:49;14.93;;;6.93;;
840;SDS011;406;48.566;13.450;2022-08-01T03:28:15;7.30;;;6.60;;
840;SDS011;406;48.566;13.450;2022-08-01T03:30:41;11.47;;;6.87;;
840;SDS011;406;48.566;13.450;2022-08-01T03:33:08;9.43;;;7.10;;
840;SDS011;406;48.566;13.450;2022-08-01T03:35:34;7.73;;;6.90;;
840;SDS011;406;48.566;13.450;2022-08-01T03:38:03;7.40;;;6.73;;
840;SDS011;406;48.566;13.450;2022-08-01T03:40:37;7.87;;;7.17;;
840;SDS011;406;48.566;13.450;2022-08-01T03:43:10;7.33;;;6.73;;
840;SDS011;406;48.566;13.450;2022-08-01T03:45:38;8.90;;;6.70;;
840;SDS011;406;48.566;13.450;2022-08-01T03:48:09;8.20;;;7.40;;
840;SDS011;406;48.566;13.450;2022-08-01T03:50:36;7.80;;;7.07;;
840;SDS011;406;48.566;13.450;2022-08-01T03:53:04;8.20;;;7.30;;
840;SDS011;406;48.566;13.450;2022-08-01T03:55:31;7.77;;;7.07;;
840;SDS011;406;48.566;13.450;2022-08-01T03:57:58;6.80;;;6.20;;
840;SDS011;406;48.566;13.450;2022-08-01T04:00:24;7.33;;;6.57;;
840;SDS011;406;48.566;13.450;2022-08-01T04:02:51;6.40;;;5.80;;
840;SDS011;406;48.566;13.450;2022-08-01T04:05:16;7.50;;;6.87;;
840;SDS011;406;48.566;13.450;2022-08-01T04:07:47;7.67;;;6.93;;
840;SDS011;406;48.566;13.450;2022-08-01T04:10:13;9.60;;;6.47;;
840;SDS011;406;48.566;13.450;2022-08-01T04:12:38;6.93;;;6.33;;
840;SDS011;406;48.566;13.450;2022-08-01T04:15:04;8.17;;;7.47;;
840;SDS011;406;48.566;13.450;2022-08-01T04:17:30;7.90;;;6.50;;
840;SDS011;406;48.566;13.450;2022-08-01T04:19:56;7.23;;;6.63;;
840;SDS011;406;48.566;13.450;2022-08-01T04:22:21;8.30;;;7.40;;
840;SDS011;406;48.566;13.450;2022-08-01T04:24:48;10.40;;;7.10;;
840;SDS011;406;48.566;13.450;2022-08-01T04:27:21;10.03;;;7.97;;
840;SDS011;406;48.566;13.450;2022-08-01T04:29:49;7.67;;;6.97;;
840;SDS011;406;48.566;13.450;2022-08-01T04:32:16;7.67;;;6.97;;
840;SDS011;406;48.566;13.450;2022-08-01T04:34:44;8.40;;;7.70;;
840;SDS011;406;48.566;13.450;2022-08-01T04:37:11;6.97;;;6.47;;
840;SDS011;406;48.566;13.450;2022-08-01T04:39:37;8.03;;;7.40;;
840;SDS011;406;48.566;13.450;2022-08-01T04:42:04;8.70;;;7.90;;
840;SDS011;406;48.566;13.450;2022-08-01T04:44:31;9.23;;;7.53;;
840;SDS011;406;48.566;13.450;2022-08-01T04:47:00;8.50;;;7.70;;
840;SDS011;406;48.566;13.450;2022-08-01T04:49:31;8.03;;;7.20;;
840;SDS011;406;48.566;13.450;2022-08-01T04:51:57;7.63;;;6.93;;
840;SDS011;406;48.566;13.450;2022-08-01T04:54:27;9.17;;;8.20;;
840;SDS011;406;48.566;13.450;2022-08-01T04:56:55;7.67;;;6.90;;
840;SDS011;406;48.566;13.450;2022-08-01T04:59:25;7.17;;;6.47;;
840;SDS011;406;48.566;13.450;2022-08-01T05:02:19;7.93;;;7.13;;
840;SDS011;406;48.566;13.450;2022-08-01T05:04:45;7.60;;;6.90;;
840;SDS011;406;48.566;13.450;2022-08-01T05:07:11;8.70;;;7.90;;
840;SDS011;406;48.566;13.450;2022-08-01T05:09:38;9.27;;;6.40;;
840;SDS011;406;48.566;13.450;2022-08-01T05:12:06;7.53;;;6.93;;
840;SDS011;406;48.566;13.450;2022-08-01T05:14:32;7.20;;;6.50;;
840;SDS011;406;48.566;13.450;2022-08-01T05:17:02;7.07;;;6.47;;
840;SDS011;406;48.566;13.450;2022-08-01T05:19:38;7.63;;;7.03;;
840;SDS011;406;48.566;13.450;2022-08-01T05:22:06;7.53;;;6.93;;
840;SDS011;406;48.566;13.450;2022-08-01T05:24:37;6.73;;;5.77;;
840;SDS011;406;48.566;13.450;2022-08-01T05:27:04;7.70;;;6.90;;
840;SDS011;406;48.566;13.450;2022-08-01T05:29:30;7.33;;;6.73;;
840;SDS011;406;48.566;13.450;2022-08-01T05:31:56;7.40;;;6.80;;
840;SDS011;406;48.566;13.450;2022-08-01T05:34:22;6.63;;;6.03;;
840;SDS011;406;48.566;13.450;2022-08-01T05:36:48;7.60;;;6.90;;
840;SDS011;406;48.566;13.450;2022-08-01T05:39:13;8.83;;;6.70;;
840;SDS011;406;48.566;13.450;2022-08-01T05:41:39;9.80;;;8.80;;
840;SDS011;406;48.566;13.450;2022-08-01T05:44:06;9.93;;;9.13;;
840;SDS011;406;48.566;13.450;2022-08-01T05:46:31;8.20;;;7.40;;
840;SDS011;406;48.566;13.450;2022-08-01T05:48:57;8.63;;;7.00;;
840;SDS011;406;48.566;13.450;2022-08-01T05:51:23;6.87;;;6.27;;
840;SDS011;406;48.566;13.450;2022-08-01T05:53:49;8.07;;;7.40;;
840;SDS011;406;48.566;13.450;2022-08-01T05:56:14;9.63;;;6.70;;
840;SDS011;406;48.566;13.450;2022-08-01T05:58:40;9.90;;;8.90;;
840;SDS011;406;48.566;13.450;2022-08-01T06:01:05;7.03;;;6.33;;
840;SDS011;406;48.566;13.450;2022-08-01T06:03:31;8.37;;;6.63;;
840;SDS011;406;48.566;13.450;2022-08-01T06:05:58;7.60;;;6.90;;
840;SDS011;406;48.566;13.450;2022-08-01T06:08:24;6.57;;;6.07;;
840;SDS011;406;48.566;13.450;2022-08-01T06:10:50;7.13;;;6.43;;
840;SDS011;406;48.566;13.450;2022-08-01T06:13:15;8.10;;;7.40;;
840;SDS011;406;48.566;13.450;2022-08-01T06:15:40;7.90;;;7.20;;
840;SDS011;406;48.566;13.450;2022-08-01T06:18:06;6.67;;;6.07;;
840;SDS011;406;48.566;13.450;2022-08-01T06:20:31;6.53;;;6.00;;
840;SDS011;406;48.566;13.450;2022-08-01T06:22:57;7.37;;;6.63;;
840;SDS011;406;48.566;13.450;2022-08-01T06:25:22;7.57;;;6.00;;
840;SDS011;406;48.566;13.450;2022-08-01T06:27:48;6.23;;;5.73;;
840;SDS011;406;48.566;13.450;2022-08-01T06:30:14;6.30;;;5.70;;
840;SDS011;406;48.566;13.450;2022-08-01T06:32:40;6.40;;;5.47;;
840;SDS011;406;48.566;13.450;2022-08-01T06:35:06;6.53;;;5.93;;
840;SDS011;406;48.566;13.450;2022-08-01T06:37:32;6.20;;;5.60;;
840;SDS011;406;48.566;13.450;2022-08-01T06:40:01;6.40;;;5.90;;
840;SDS011;406;48.566;13.450;2022-08-01T06:42:30;8.63;;;5.50;;
840;SDS011;406;48.566;13.450;2022-08-01T06:45:04;6.27;;;5.03;;
840;SDS011;406;48.566;13.450;2022-08-01T06:47:30;5.53;;;5.03;;
840;SDS011;406;48.566;13.450;2022-08-01T06:49:56;6.43;;;5.83;;
840;SDS011;406;48.566;13.450;2022-08-01T06:52:21;5.70;;;5.20;;
840;SDS011;406;48.566;13.450;2022-08-01T06:54:47;5.33;;;4.73;;
840;SDS011;406;48.566;13.450;2022-08-01T06:57:12;5.20;;;4.80;;
840;SDS011;406;48.566;13.450;2022-08-01T06:59:38;7.93;;;5.60;;
840;SDS011;406;48.566;13.450;2022-08-01T07:02:03;5.20;;;4.80;;
840;SDS011;406;48.566;13.450;2022-08-01T07:04:29;5.03;;;4.60;;
840;SDS011;406;48.566;13.450;2022-08-01T07:06:55;5.10;;;4.70;;
840;SDS011;406;48.566;13.450;2022-08-01T07:09:20;6.20;;;5.60;;
840;SDS011;406;48.566;13.450;2022-08-01T07:11:46;7.20;;;5.77;;
840;SDS011;406;48.566;13.450;2022-08-01T07:14:11;4.80;;;4.40;;
840;SDS011;406;48.566;13.450;2022-08-01T07:16:37;6.47;;;5.13;;
840;SDS011;406;48.566;13.450;2022-08-01T07:19:02;4.60;;;4.20;;
840;SDS011;406;48.566;13.450;2022-08-01T07:21:28;4.77;;;4.27;;
840;SDS011;406;48.566;13.450;2022-08-01T07:23:53;4.40;;;4.10;;
840;SDS011;406;48.566;13.450;2022-08-01T07:26:19;5.20;;;3.73;;
840;SDS011;406;48.566;13.450;2022-08-01T07:28:44;5.03;;;4.47;;
840;SDS011;406;48.566;13.450;2022-08-01T07:31:10;4.07;;;3.67;;
840;SDS011;406;48.566;13.450;2022-08-01T07:33:35;4.50;;;4.00;;
840;SDS011;406;48.566;13.450;2022-08-01T07:36:01;5.07;;;4.07;;
840;SDS011;406;48.566;13.450;2022-08-01T07:38:28;4.33;;;3.93;;
840;SDS011;406;48.566;13.450;2022-08-01T07:40:54;4.10;;;3.80;;
840;SDS011;406;48.566;13.450;2022-08-01T07:43:20;6.00;;;4.13;;
840;SDS011;406;48.566;13.450;2022-08-01T07:45:45;5.60;;;5.10;;
840;SDS011;406;48.566;13.450;2022-08-01T07:48:11;4.57;;;4.13;;
840;SDS011;406;48.566;13.450;2022-08-01T07:50:36;6.03;;;4.50;;
840;SDS011;406;48.566;13.450;2022-08-01T07:53:02;5.53;;;4.57;;
840;SDS011;406;48.566;13.450;2022-08-01T07:55:28;5.00;;;4.50;;
840;SDS011;406;48.566;13.450;2022-08-01T07:57:54;5.73;;;4.30;;
840;SDS011;406;48.566;13.450;2022-08-01T08:00:19;4.20;;;3.80;;
840;SDS011;406;48.566;13.450;2022-08-01T08:02:45;5.30;;;4.90;;
840;SDS011;406;48.566;13.450;2022-08-01T08:05:11;6.97;;;4.43;;
840;SDS011;406;48.566;13.450;2022-08-01T08:07:36;4.77;;;4.30;;
840;SDS011;406;48.566;13.450;2022-08-01T08:10:02;7.63;;;4.50;;
840;SDS011;406;48.566;13.450;2022-08-01T08:12:29;5.20;;;4.80;;
840;SDS011;406;48.566;13.450;2022-08-01T08:14:55;4.70;;;4.30;;
840;SDS011;406;48.566;13.450;2022-08-01T08:17:20;4.70;;;4.30;;
840;SDS011;406;48.566;13.450;2022-08-01T08:19:45;6.17;;;4.20;;
840;SDS011;406;48.566;13.450;2022-08-01T08:22:11;5.37;;;4.87;;
840;SDS011;406;48.566;13.450;2022-08-01T08:24:37;4.60;;;4.20;;
840;SDS011;406;48.566;13.450;2022-08-01T08:27:03;4.73;;;4.33;;
840;SDS011;406;48.566;13.450;2022-08-01T08:29:29;4.63;;;4.23;;
840;SDS011;406;48.566;13.450;2022-08-01T08:31:56;5.00;;;4.47;;
840;SDS011;406;48.566;13.450;2022-08-01T08:34:23;5.43;;;4.93;;
840;SDS011;406;48.566;13.450;2022-08-01T08:36:49;6.07;;;5.57;;
840;SDS011;406;48.566;13.450;2022-08-01T08:39:15;4.90;;;4.50;;
840;SDS011;406;48.566;13.450;2022-08-01T08:41:41;5.47;;;4.80;;
840;SDS011;406;48.566;13.450;2022-08-01T08:44:07;5.37;;;4.57;;
840;SDS011;406;48.566;13.450;2022-08-01T08:46:34;6.60;;;4.80;;
840;SDS011;406;48.566;13.450;2022-08-01T08:49:05;7.47;;;5.20;;
840;SDS011;406;48.566;13.450;2022-08-01T08:51:32;5.33;;;4.83;;
840;SDS011;406;48.566;13.450;2022-08-01T08:53:59;5.83;;;4.67;;
840;SDS011;406;48.566;13.450;2022-08-01T08:56:25;4.90;;;4.50;;
840;SDS011;406;48.566;13.450;2022-08-01T08:58:51;5.40;;;4.00;;
840;SDS011;406;48.566;13.450;2022-08-01T09:01:17;7.53;;;5.33;;
840;SDS011;406;48.566;13.450;2022-08-01T09:03:43;5.03;;;4.57;;
840;SDS011;406;48.566;13.450;2022-08-01T09:06:09;13.63;;;4.67;;
840;SDS011;406;48.566;13.450;2022-08-01T09:08:35;7.57;;;5.10;;
840;SDS011;406;48.566;13.450;2022-08-01T09:11:01;7.13;;;4.70;;
840;SDS011;406;48.566;13.450;2022-08-01T09:13:27;4.83;;;4.43;;
840;SDS011;406;48.566;13.450;2022-08-01T09:15:54;5.37;;;4.80;;
840;SDS011;406;48.566;13.450;2022-08-01T09:18:30;4.77;;;4.23;;
840;SDS011;406;48.566;13.450;2022-08-01T09:21:18;13.13;;;6.87;;
840;SDS011;406;48.566;13.450;2022-08-01T09:23:50;6.10;;;4.43;;
840;SDS011;406;48.566;13.450;2022-08-01T09:26:21;4.87;;;4.47;;
840;SDS011;406;48.566;13.450;2022-08-01T09:28:55;4.30;;;3.90;;
840;SDS011;406;48.566;13.450;2022-08-01T09:31:20;4.30;;;3.90;;
840;SDS011;406;48.566;13.450;2022-08-01T09:33:50;4.50;;;4.10;;
840;SDS011;406;48.566;13.450;2022-08-01T09:36:27;3.70;;;3.40;;
840;SDS011;406;48.566;13.450;2022-08-01T09:39:12;3.90;;;3.60;;
840;SDS011;406;48.566;13.450;2022-08-01T09:41:38;3.80;;;3.50;;
840;SDS011;406;48.566;13.450;2022-08-01T09:44:04;6.10;;;4.13;;
840;SDS011;406;48.566;13.450;2022-08-01T09:46:29;4.03;;;3.50;;
840;SDS011;406;48.566;13.450;2022-08-01T09:48:59;3.37;;;3.07;;
840;SDS011;406;48.566;13.450;2022-08-01T09:51:29;3.67;;;3.37;;
840;SDS011;406;48.566;13.450;2022-08-01T09:53:59;3.83;;;3.37;;
840;SDS011;406;48.566;13.450;2022-08-01T09:56:25;9.00;;;3.20;;
840;SDS011;406;48.566;13.450;2022-08-01T09:58:56;3.57;;;3.20;;
840;SDS011;406;48.566;13.450;2022-08-01T10:01:22;3.43;;;3.13;;
840;SDS011;406;48.566;13.450;2022-08-01T10:04:04;3.80;;;3.50;;
840;SDS011;406;48.566;13.450;2022-08-01T10:06:38;4.07;;;3.20;;
840;SDS011;406;48.566;13.450;2022-08-01T10:09:04;5.47;;;3.50;;
840;SDS011;406;48.566;13.450;2022-08-01T10:11:30;4.00;;;3.60;;
840;SDS011;406;48.566;13.450;2022-08-01T10:13:57;4.63;;;4.30;;
840;SDS011;406;48.566;13.450;2022-08-01T10:16:26;3.73;;;3.40;;
840;SDS011;406;48.566;13.450;2022-08-01T10:18:51;2.90;;;2.70;;
840;SDS011;406;48.566;13.450;2022-08-01T10:21:18;3.60;;;2.70;;
840;SDS011;406;48.566;13.450;2022-08-01T10:23:44;6.80;;;3.80;;
840;SDS011;406;48.566;13.450;2022-08-01T10:26:10;3.57;;;3.27;;
840;SDS011;406;48.566;13.450;2022-08-01T10:28:37;3.53;;;3.23;;
840;SDS011;406;48.566;13.450;2022-08-01T10:31:03;3.00;;;2.47;;
840;SDS011;406;48.566;13.450;2022-08-01T10:33:29;2.73;;;2.53;;
840;SDS011;406;48.566;13.450;2022-08-01T10:35:55;2.60;;;2.40;;
840;SDS011;406;48.566;13.450;2022-08-01T10:38:22;4.80;;;2.80;;
840;SDS011;406;48.566;13.450;2022-08-01T10:40:48;4.50;;;2.97;;
840;SDS011;406;48.566;13.450;2022-08-01T10:43:14;3.73;;;3.43;;
840;SDS011;406;48.566;13.450;2022-08-01T10:45:42;4.20;;;3.83;;
840;SDS011;406;48.566;13.450;2022-08-01T10:50:56;3.23;;;2.93;;
840;SDS011;406;48.566;13.450;2022-08-01T10:53:24;6.00;;;3.70;;
840;SDS011;406;48.566;13.450;2022-08-01T10:58:35;2.97;;;2.67;;
840;SDS011;406;48.566;13.450;2022-08-01T11:01:15;2.93;;;2.70;;
840;SDS011;406;48.566;13.450;2022-08-01T11:03:44;3.60;;;2.30;;
840;SDS011;406;48.566;13.450;2022-08-01T11:06:23;3.00;;;2.17;;
840;SDS011;406;48.566;13.450;2022-08-01T11:08:51;7.60;;;2.77;;
840;SDS011;406;48.566;13.450;2022-08-01T11:11:18;3.13;;;2.50;;
840;SDS011;406;48.566;13.450;2022-08-01T11:16:32;2.83;;;2.17;;
840;SDS011;406;48.566;13.450;2022-08-01T11:18:59;3.70;;;2.60;;
840;SDS011;406;48.566;13.450;2022-08-01T11:22:07;3.70;;;3.00;;
840;SDS011;406;48.566;13.450;2022-08-01T11:24:52;2.97;;;2.60;;
840;SDS011;406;48.566;13.450;2022-08-01T11:35:18;3.47;;;2.60;;
840;SDS011;406;48.566;13.450;2022-08-01T11:37:46;5.20;;;2.73;;
840;SDS011;406;48.566;13.450;2022-08-01T11:40:16;4.50;;;2.20;;
840;SDS011;406;48.566;13.450;2022-08-01T11:48:32;3.23;;;1.97;;
840;SDS011;406;48.566;13.450;2022-08-01T11:50:57;2.80;;;1.83;;
840;SDS011;406;48.566;13.450;2022-08-01T11:53:23;2.00;;;1.80;;
840;SDS011;406;48.566;13.450;2022-08-01T11:55:50;4.73;;;2.87;;
840;SDS011;406;48.566;13.450;2022-08-01T11:58:20;2.63;;;1.83;;
840;SDS011;406;48.566;13.450;2022-08-01T12:00:53;3.27;;;1.97;;
840;SDS011;406;48.566;13.450;2022-08-01T12:03:23;2.47;;;2.00;;
840;SDS011;406;48.566;13.450;2022-08-01T12:05:55;3.23;;;2.13;;
840;SDS011;406;48.566;13.450;2022-08-01T12:08:28;3.90;;;2.40;;
840;SDS011;406;48.566;13.450;2022-08-01T12:10:56;3.00;;;2.70;;
840;SDS011;406;48.566;13.450;2022-08-01T12:13:21;5.00;;;2.80;;
840;SDS011;406;48.566;13.450;2022-08-01T12:15:47;2.20;;;2.00;;
840;SDS011;406;48.566;13.450;2022-08-01T12:18:13;5.10;;;1.90;;
840;SDS011;406;48.566;13.450;2022-08-01T12:20:40;4.23;;;1.73;;
840;SDS011;406;48.566;13.450;2022-08-01T12:23:08;1.70;;;1.50;;
840;SDS011;406;48.566;13.450;2022-08-01T12:25:35;2.37;;;2.10;;
840;SDS011;406;48.566;13.450;2022-08-01T12:28:02;2.07;;;1.57;;
840;SDS011;406;48.566;13.450;2022-08-01T12:30:29;2.70;;;2.43;;
840;SDS011;406;48.566;13.450;2022-08-01T12:33:00;3.60;;;2.57;;
840;SDS011;406;48.566;13.450;2022-08-01T12:35:27;4.20;;;2.40;;
840;SDS011;406;48.566;13.450;2022-08-01T12:37:54;2.47;;;1.93;;
840;SDS011;406;48.566;13.450;2022-08-01T12:40:28;2.50;;;2.13;;
840;SDS011;406;48.566;13.450;2022-08-01T12:43:01;3.20;;;2.17;;
840;SDS011;406;48.566;13.450;2022-08-01T12:45:30;3.30;;;2.57;;
840;SDS011;406;48.566;13.450;2022-08-01T12:47:59;2.83;;;2.33;;
840;SDS011;406;48.566;13.450;2022-08-01T12:50:26;4.20;;;2.47;;
840;SDS011;406;48.566;13.450;2022-08-01T12:52:55;2.03;;;1.70;;
840;SDS011;406;48.566;13.450;2022-08-01T12:55:22;2.30;;;2.10;;
840;SDS011;406;48.566;13.450;2022-08-01T12:57:50;3.33;;;2.00;;
840;SDS011;406;48.566;13.450;2022-08-01T13:00:28;2.30;;;2.10;;
840;SDS011;406;48.566;13.450;2022-08-01T13:03:04;2.80;;;2.07;;
840;SDS011;406;48.566;13.450;2022-08-01T13:05:41;3.30;;;2.47;;
840;SDS011;406;48.566;13.450;2022-08-01T13:08:14;4.57;;;2.10;;
840;SDS011;406;48.566;13.450;2022-08-01T13:10:44;5.40;;;2.80;;
840;SDS011;406;48.566;13.450;2022-08-01T13:13:10;3.00;;;2.70;;
840;SDS011;406;48.566;13.450;2022-08-01T13:15:37;4.50;;;2.90;;
840;SDS011;406;48.566;13.450;2022-08-01T13:21:15;3.37;;;2.70;;
840;SDS011;406;48.566;13.450;2022-08-01T13:23:42;4.33;;;3.37;;
840;SDS011;406;48.566;13.450;2022-08-01T13:29:09;3.70;;;3.40;;
840;SDS011;406;48.566;13.450;2022-08-01T13:31:38;3.40;;;3.10;;
840;SDS011;406;48.566;13.450;2022-08-01T13:34:04;6.50;;;2.90;;
840;SDS011;406;48.566;13.450;2022-08-01T13:36:30;3.30;;;3.00;;
840;SDS011;406;48.566;13.450;2022-08-01T13:38:57;3.73;;;3.07;;
840;SDS011;406;48.566;13.450;2022-08-01T13:41:42;6.30;;;3.70;;
840;SDS011;406;48.566;13.450;2022-08-01T13:44:08;2.80;;;2.60;;
840;SDS011;406;48.566;13.450;2022-08-01T13:46:34;4.60;;;2.87;;
840;SDS011;406;48.566;13.450;2022-08-01T13:49:00;3.53;;;2.73;;
840;SDS011;406;48.566;13.450;2022-08-01T13:51:26;2.83;;;2.53;;
840;SDS011;406;48.566;13.450;2022-08-01T13:53:52;3.03;;;2.73;;
840;SDS011;406;48.566;13.450;2022-08-01T13:56:17;3.27;;;3.00;;
840;SDS011;406;48.566;13.450;2022-08-01T13:58:43;3.23;;;2.40;;
840;SDS011;406;48.566;13.450;2022-08-01T14:01:09;3.20;;;2.43;;
840;SDS011;406;48.566;13.450;2022-08-01T14:03:34;3.33;;;3.03;;
840;SDS011;406;48.566;13.450;2022-08-01T14:06:00;3.63;;;2.50;;
840;SDS011;406;48.566;13.450;2022-08-01T14:08:26;4.50;;;2.90;;
840;SDS011;406;48.566;13.450;2022-08-01T14:10:51;3.33;;;2.90;;
840;SDS011;406;48.566;13.450;2022-08-01T14:13:19;2.90;;;2.67;;
840;SDS011;406;48.566;13.450;2022-08-01T14:15:44;3.43;;;2.40;;
840;SDS011;406;48.566;13.450;2022-08-01T14:18:10;3.20;;;2.63;;
840;SDS011;406;48.566;13.450;2022-08-01T14:20:35;2.47;;;2.27;;
840;SDS011;406;48.566;13.450;2022-08-01T14:23:02;3.77;;;2.67;;
840;SDS011;406;48.566;13.450;2022-08-01T14:25:28;4.43;;;2.80;;
840;SDS011;406;48.566;13.450;2022-08-01T14:27:53;3.90;;;2.20;;
840;SDS011;406;48.566;13.450;2022-08-01T14:30:19;6.10;;;1.73;;
840;SDS011;406;48.566;13.450;2022-08-01T14:32:45;3.20;;;1.90;;
840;SDS011;406;48.566;13.450;2022-08-01T14:35:10;2.40;;;2.20;;
840;SDS011;406;48.566;13.450;2022-08-01T14:37:36;1.93;;;1.77;;
840;SDS011;406;48.566;13.450;2022-08-01T14:40:02;2.13;;;1.90;;
840;SDS011;406;48.566;13.450;2022-08-01T14:42:30;2.67;;;1.73;;
840;SDS011;406;48.566;13.450;2022-08-01T14:44:56;2.13;;;1.93;;
840;SDS011;406;48.566;13.450;2022-08-01T14:47:21;2.40;;;1.70;;
840;SDS011;406;48.566;13.450;2022-08-01T14:49:47;1.73;;;1.47;;
840;SDS011;406;48.566;13.450;2022-08-01T14:52:12;5.50;;;2.07;;
840;SDS011;406;48.566;13.450;2022-08-01T14:54:38;3.67;;;1.87;;
840;SDS011;406;48.566;13.450;2022-08-01T14:57:03;1.60;;;1.50;;
840;SDS011;406;48.566;13.450;2022-08-01T14:59:29;5.20;;;1.30;;
840;SDS011;406;48.566;13.450;2022-08-01T15:01:54;2.60;;;1.53;;
840;SDS011;406;48.566;13.450;2022-08-01T15:04:20;2.27;;;1.70;;
840;SDS011;406;48.566;13.450;2022-08-01T15:06:45;2.20;;;2.00;;
840;SDS011;406;48.566;13.450;2022-08-01T15:09:11;2.27;;;1.77;;
840;SDS011;406;48.566;13.450;2022-08-01T15:11:36;1.97;;;1.77;;
840;SDS011;406;48.566;13.450;2022-08-01T15:14:02;2.13;;;1.90;;
840;SDS011;406;48.566;13.450;2022-08-01T15:16:46;1.87;;;1.67;;
840;SDS011;406;48.566;13.450;2022-08-01T15:19:12;1.90;;;1.40;;
840;SDS011;406;48.566;13.450;2022-08-01T15:21:38;1.70;;;1.60;;
840;SDS011;406;48.566;13.450;2022-08-01T15:24:03;2.50;;;1.87;;
840;SDS011;406;48.566;13.450;2022-08-01T15:26:29;1.60;;;1.50;;
840;SDS011;406;48.566;13.450;2022-08-01T15:28:54;1.53;;;1.33;;
840;SDS011;406;48.566;13.450;2022-08-01T15:31:20;2.80;;;1.40;;
840;SDS011;406;48.566;13.450;2022-08-01T15:33:45;1.47;;;1.23;;
840;SDS011;406;48.566;13.450;2022-08-01T15:36:11;2.50;;;1.50;;
840;SDS011;406;48.566;13.450;2022-08-01T15:38:36;5.43;;;2.00;;
840;SDS011;406;48.566;13.450;2022-08-01T15:41:02;1.30;;;1.20;;
840;SDS011;406;48.566;13.450;2022-08-01T15:43:27;2.43;;;1.27;;
840;SDS011;406;48.566;13.450;2022-08-01T15:45:53;1.87;;;1.20;;
840;SDS011;406;48.566;13.450;2022-08-01T15:48:18;2.97;;;1.30;;
840;SDS011;406;48.566;13.450;2022-08-01T15:50:44;1.60;;;1.30;;
840;SDS011;406;48.566;13.450;2022-08-01T15:53:10;3.30;;;2.03;;
840;SDS011;406;48.566;13.450;2022-08-01T15:55:35;1.50;;;1.10;;
840;SDS011;406;48.566;13.450;2022-08-01T15:58:04;1.60;;;1.40;;
840;SDS011;406;48.566;13.450;2022-08-01T16:00:30;1.20;;;1.10;;
840;SDS011;406;48.566;13.450;2022-08-01T16:02:55;2.00;;;1.50;;
840;SDS011;406;48.566;13.450;2022-08-01T16:05:21;9.23;;;1.70;;